Time;durP1;ratioP1;P1;durP2;ratioP2;P2;SDS_P1;SDS_P2;PMS_P1;PMS_P2;Temp;Humidity;BMP_temperature;BMP_pressure;BME280_temperature;BME280_humidity;BME280_pressure;Samples;Min_cycle;Max_cycle;Signal;HPM_P1;HPM_P2
2023/10/18 00:02:46;;;;;;;44.67;19.70;;;;;;;2.76;93.25;100430.00;4234579;28;21718;-75
2023/10/18 00:05:15;;;;;;;43.47;20.33;;;;;;;2.83;92.84;100437.53;4227358;28;20375;-74
2023/10/18 00:07:43;;;;;;;51.93;21.03;;;;;;;2.71;93.80;100427.63;4204747;28;20235;-74
2023/10/18 00:10:10;;;;;;;49.10;20.70;;;;;;;2.71;93.61;100430.31;4221657;28;20353;-72
2023/10/18 00:12:39;;;;;;;46.73;19.60;;;;;;;2.75;93.80;100418.47;4216892;28;20235;-74
2023/10/18 00:15:06;;;;;;;53.30;20.23;;;;;;;2.74;93.37;100426.56;4222136;28;23466;-75
2023/10/18 00:17:33;;;;;;;45.83;19.40;;;;;;;2.58;94.61;100432.88;4210985;28;20236;-74
2023/10/18 00:20:00;;;;;;;41.83;20.23;;;;;;;2.71;94.79;100424.13;4227491;28;20245;-73
2023/10/18 00:22:26;;;;;;;47.43;20.80;;;;;;;2.89;93.53;100424.75;4217047;28;22214;-73
2023/10/18 00:24:55;;;;;;;49.40;19.57;;;;;;;2.74;94.10;100413.22;4222341;28;20239;-74
2023/10/18 00:27:24;;;;;;;46.27;20.27;;;;;;;2.69;94.05;100422.41;4222863;28;20700;-75
2023/10/18 00:29:54;;;;;;;43.97;19.33;;;;;;;2.85;93.95;100419.59;4224085;28;20460;-74
2023/10/18 00:32:21;;;;;;;43.77;19.73;;;;;;;2.73;93.77;100420.38;4210508;28;20236;-75
2023/10/18 00:34:49;;;;;;;41.60;19.23;;;;;;;2.59;94.11;100418.56;4219681;28;20243;-72
2023/10/18 00:37:16;;;;;;;43.73;17.97;;;;;;;2.65;93.98;100418.19;4216771;28;20604;-74
2023/10/18 00:39:43;;;;;;;47.90;19.03;;;;;;;2.51;93.70;100420.88;4219767;28;20255;-73
2023/10/18 00:45:08;;;;;;;43.53;18.40;;;;;;;2.64;94.35;100418.28;4212502;28;20316;-74
2023/10/18 00:47:35;;;;;;;43.47;18.27;;;;;;;2.63;93.78;100411.22;4208343;28;21070;-74
2023/10/18 00:50:03;;;;;;;47.40;19.57;;;;;;;2.75;93.40;100409.59;4224570;28;20651;-73
2023/10/18 00:52:30;;;;;;;43.93;19.57;;;;;;;2.72;92.76;100402.63;4218311;28;21626;-73
2023/10/18 00:54:57;;;;;;;42.43;18.33;;;;;;;2.66;92.52;100406.53;4204139;28;21849;-73
2023/10/18 00:57:24;;;;;;;40.87;19.17;;;;;;;2.66;92.71;100397.69;4200346;28;20423;-76
2023/10/18 01:00:18;;;;;;;41.10;19.20;;;;;;;2.54;93.15;100402.81;4207635;28;20660;-74
2023/10/18 01:02:48;;;;;;;40.00;17.27;;;;;;;2.47;93.72;100404.16;4225739;28;20236;-74
2023/10/18 01:05:15;;;;;;;47.17;19.07;;;;;;;2.40;94.31;100392.16;4224722;28;20244;-74
2023/10/18 01:07:43;;;;;;;46.27;18.23;;;;;;;2.43;94.07;100391.97;4217195;28;23558;-74
2023/10/18 01:10:12;;;;;;;41.37;19.07;;;;;;;2.33;94.39;100394.38;4219312;28;20249;-75
2023/10/18 01:12:39;;;;;;;42.47;18.87;;;;;;;2.24;94.59;100392.25;4205251;28;20367;-73
2023/10/18 01:15:06;;;;;;;41.77;18.17;;;;;;;2.26;94.27;100390.34;4202816;28;21137;-73
2023/10/18 01:17:37;;;;;;;37.90;18.60;;;;;;;2.21;94.48;100382.63;4215019;28;20239;-74
2023/10/18 01:20:14;;;;;;;47.73;19.00;;;;;;;2.21;94.60;100387.09;4226196;28;22258;-72
2023/10/18 01:22:41;;;;;;;49.63;18.77;;;;;;;2.18;94.51;100381.97;4212758;28;20236;-74
2023/10/18 01:25:13;;;;;;;46.53;19.30;;;;;;;2.16;94.65;100389.19;4219492;28;20311;-75
2023/10/18 01:27:39;;;;;;;45.67;19.00;;;;;;;2.10;95.53;100392.25;4210588;28;20239;-74
2023/10/18 01:30:07;;;;;;;47.13;19.07;;;;;;;2.15;95.14;100380.31;4212992;28;20864;-73
2023/10/18 01:32:33;;;;;;;42.97;19.13;;;;;;;2.18;94.91;100380.13;4209029;28;20327;-74
2023/10/18 01:35:00;;;;;;;42.97;18.63;;;;;;;2.23;95.30;100377.19;4223002;28;20236;-74
2023/10/18 01:37:29;;;;;;;44.57;18.50;;;;;;;2.17;94.73;100382.91;4216220;28;20233;-74
2023/10/18 01:39:57;;;;;;;43.63;18.63;;;;;;;2.12;95.17;100384.97;4213512;28;20708;-73
2023/10/18 01:42:25;;;;;;;42.87;19.50;;;;;;;2.15;94.79;100380.31;4212150;28;20439;-73
2023/10/18 01:44:52;;;;;;;42.97;19.63;;;;;;;2.16;94.97;100382.03;4215176;28;21525;-74
2023/10/18 01:47:20;;;;;;;45.93;19.53;;;;;;;2.16;95.23;100382.03;4200683;28;22307;-76
2023/10/18 01:49:50;;;;;;;41.70;19.00;;;;;;;2.16;95.20;100382.03;4216989;28;20502;-75
2023/10/18 01:52:19;;;;;;;38.93;17.83;;;;;;;2.29;94.39;100379.47;4216573;28;20236;-74
2023/10/18 01:54:46;;;;;;;47.40;19.40;;;;;;;2.18;94.64;100385.47;4218781;28;20307;-73
2023/10/18 01:57:13;;;;;;;45.97;18.47;;;;;;;2.04;95.18;100390.81;4225336;28;20611;-74
2023/10/18 01:59:40;;;;;;;45.37;18.23;;;;;;;1.90;95.45;100381.84;4225539;28;20247;-73
2023/10/18 02:02:10;;;;;;;41.53;18.23;;;;;;;1.74;95.66;100379.22;4207359;28;20683;-75
2023/10/18 02:04:40;;;;;;;47.40;19.37;;;;;;;1.75;96.01;100377.41;4209921;28;20438;-75
2023/10/18 02:07:18;;;;;;;47.63;18.53;;;;;;;1.67;95.88;100377.84;4217244;28;20382;-74
2023/10/18 02:09:58;;;;;;;37.87;17.90;;;;;;;1.57;95.97;100371.38;4203658;28;20228;-73
2023/10/18 02:12:27;;;;;;;39.10;17.17;;;;;;;1.65;95.95;100378.91;4214289;28;20777;-73
2023/10/18 02:14:58;;;;;;;38.90;17.97;;;;;;;1.51;96.32;100374.41;4221761;28;20261;-76
2023/10/18 02:17:24;;;;;;;39.80;18.43;;;;;;;1.46;96.28;100374.69;4218607;28;21130;-75
2023/10/18 02:19:52;;;;;;;41.73;18.13;;;;;;;1.57;96.21;100374.88;4225027;28;22722;-76
2023/10/18 02:22:18;;;;;;;40.67;17.77;;;;;;;1.54;96.39;100380.44;4218006;28;20677;-73
2023/10/18 02:24:46;;;;;;;40.43;19.07;;;;;;;1.69;95.69;100383.13;4221682;28;20290;-73
2023/10/18 02:27:16;;;;;;;42.67;19.47;;;;;;;1.57;95.88;100379.38;4216858;28;21255;-72
2023/10/18 02:29:44;;;;;;;44.60;19.70;;;;;;;1.52;95.96;100376.09;4217695;28;20242;-73
2023/10/18 02:32:31;;;;;;;43.30;19.67;;;;;;;1.33;96.22;100373.66;4209688;28;20260;-75
2023/10/18 02:34:58;;;;;;;43.57;20.00;;;;;;;1.34;96.91;100372.72;4218185;28;22940;-75
2023/10/18 02:37:25;;;;;;;44.50;20.33;;;;;;;1.29;96.99;100372.97;4220352;28;21691;-74
2023/10/18 02:39:56;;;;;;;46.07;20.17;;;;;;;1.24;97.77;100367.06;4231959;28;23022;-73
2023/10/18 02:42:32;;;;;;;48.90;21.13;;;;;;;1.21;97.85;100367.25;4205661;28;20247;-74
2023/10/18 02:45:00;;;;;;;45.03;20.93;;;;;;;1.25;97.88;100366.13;4216029;28;23364;-74
2023/10/18 02:47:30;;;;;;;52.47;21.17;;;;;;;1.30;97.72;100360.53;4212205;28;20838;-73
2023/10/18 02:49:57;;;;;;;51.97;20.53;;;;;;;1.19;97.79;100364.66;4219401;28;20284;-74
2023/10/18 02:52:26;;;;;;;46.90;19.93;;;;;;;1.24;98.21;100356.41;4210514;28;20252;-74
2023/10/18 02:54:56;;;;;;;45.70;21.27;;;;;;;1.35;97.99;100355.75;4227212;28;21072;-74
2023/10/18 02:57:24;;;;;;;53.53;21.73;;;;;;;1.35;97.90;100353.97;4220114;28;21178;-75
2023/10/18 02:59:51;;;;;;;44.50;20.00;;;;;;;1.51;96.81;100353.91;4227480;28;22259;-73
2023/10/18 03:02:24;;;;;;;47.47;20.07;;;;;;;1.48;96.93;100353.25;4218256;28;20248;-76
2023/10/18 03:04:52;;;;;;;40.77;20.57;;;;;;;1.61;97.03;100345.38;4226640;28;21730;-74
2023/10/18 03:07:21;;;;;;;53.97;20.97;;;;;;;1.72;96.20;100346.44;4210517;28;20232;-75
2023/10/18 03:09:49;;;;;;;46.50;20.57;;;;;;;1.74;96.04;100349.00;4218204;28;20551;-74
2023/10/18 03:12:17;;;;;;;46.90;21.20;;;;;;;1.78;95.76;100347.84;4228505;28;20247;-73
2023/10/18 03:14:54;;;;;;;46.20;20.70;;;;;;;1.58;95.37;100341.09;4222598;28;20227;-75
2023/10/18 03:17:28;;;;;;;48.13;21.23;;;;;;;1.74;95.86;100344.50;4214744;28;21951;-75
2023/10/18 03:19:56;;;;;;;46.57;20.90;;;;;;;1.76;95.14;100349.78;4224641;28;20231;-74
2023/10/18 03:22:31;;;;;;;48.53;20.40;;;;;;;1.79;94.79;100348.72;4217638;28;23674;-73
2023/10/18 03:24:59;;;;;;;44.77;20.53;;;;;;;1.75;95.07;100345.41;4212453;28;20239;-73
2023/10/18 03:27:33;;;;;;;46.63;21.17;;;;;;;1.71;95.13;100338.50;4198904;28;20291;-73
2023/10/18 03:30:12;;;;;;;50.73;20.97;;;;;;;1.70;95.56;100328.81;4226260;28;25629;-74
2023/10/18 03:32:39;;;;;;;47.00;20.70;;;;;;;1.63;95.65;100325.66;4210889;28;20235;-74
2023/10/18 03:35:09;;;;;;;48.17;20.70;;;;;;;1.67;95.74;100324.50;4205246;28;20312;-72
2023/10/18 03:37:39;;;;;;;42.13;19.63;;;;;;;1.74;95.53;100330.31;4204837;28;20236;-73
2023/10/18 03:40:27;;;;;;;47.23;21.00;;;;;;;1.81;95.00;100329.00;4214782;28;20235;-74
2023/10/18 03:42:54;;;;;;;45.50;19.83;;;;;;;1.73;94.94;100307.25;4215047;28;20244;-73
2023/10/18 03:45:22;;;;;;;45.10;19.60;;;;;;;1.82;94.86;100316.50;4231195;28;20232;-74
2023/10/18 03:47:58;;;;;;;49.17;19.47;;;;;;;1.80;94.91;100305.94;4218503;28;20295;-75
2023/10/18 03:50:41;;;;;;;52.47;21.80;;;;;;;1.76;95.07;100311.53;4213638;28;20273;-76
2023/10/18 03:53:08;;;;;;;43.03;20.13;;;;;;;1.81;94.71;100310.31;4226904;28;20352;-74
2023/10/18 03:55:39;;;;;;;44.87;20.27;;;;;;;1.74;94.76;100299.16;4221242;28;20231;-75
2023/10/18 03:58:06;;;;;;;48.27;20.37;;;;;;;1.74;94.77;100306.31;4213969;28;20243;-74
2023/10/18 04:00:43;;;;;;;45.23;19.53;;;;;;;1.72;95.51;100300.19;4217217;28;20842;-73
2023/10/18 04:03:15;;;;;;;45.93;20.93;;;;;;;1.60;95.20;100307.13;4234313;28;20225;-73
2023/10/18 04:05:45;;;;;;;50.93;20.93;;;;;;;1.50;95.66;100296.16;4213102;28;20599;-73
2023/10/18 04:08:17;;;;;;;51.43;21.20;;;;;;;1.45;95.63;100298.28;4227498;28;20353;-73
2023/10/18 04:10:54;;;;;;;44.33;20.67;;;;;;;1.43;96.24;100298.34;4224879;28;20246;-72
2023/10/18 04:13:24;;;;;;;43.30;19.33;;;;;;;1.50;95.68;100301.50;4215620;28;22038;-73
2023/10/18 04:16:00;;;;;;;50.83;20.97;;;;;;;1.46;96.32;100299.13;4216282;28;20325;-73
2023/10/18 04:18:29;;;;;;;46.77;20.37;;;;;;;1.29;96.80;100302.78;4221216;28;20248;-72
2023/10/18 04:20:59;;;;;;;48.87;22.63;;;;;;;1.18;97.38;100298.94;4214662;28;20373;-73
2023/10/18 04:23:26;;;;;;;53.00;21.67;;;;;;;1.19;97.63;100298.00;4222381;28;20232;-74
2023/10/18 04:26:01;;;;;;;48.23;20.73;;;;;;;1.30;97.38;100299.19;4221232;28;20243;-74
2023/10/18 04:28:31;;;;;;;49.97;21.03;;;;;;;1.38;96.84;100296.91;4214809;28;20233;-73
2023/10/18 04:31:00;;;;;;;48.13;21.00;;;;;;;1.36;97.39;100305.00;4206341;28;20252;-74
2023/10/18 04:33:36;;;;;;;45.93;20.97;;;;;;;1.51;96.69;100300.56;4222942;28;20224;-75
2023/10/18 04:36:21;;;;;;;47.97;20.70;;;;;;;1.53;96.42;100300.47;4208154;28;21595;-74
2023/10/18 04:38:49;;;;;;;56.77;21.90;;;;;;;1.50;96.20;100290.00;4223722;28;23065;-74
2023/10/18 04:43:52;;;;;;;55.90;22.70;;;;;;;1.33;96.62;100296.31;4216480;28;21583;-75
2023/10/18 04:46:26;;;;;;;51.53;21.20;;;;;;;1.29;97.13;100294.78;4214833;28;20613;-73
2023/10/18 04:51:44;;;;;;;46.10;20.80;;;;;;;1.42;97.02;100287.78;4214797;28;20241;-74
2023/10/18 04:54:15;;;;;;;43.13;20.03;;;;;;;1.56;96.43;100289.63;4223366;28;20416;-73
2023/10/18 04:56:44;;;;;;;47.33;21.00;;;;;;;1.41;96.53;100288.72;4219054;28;23662;-74
2023/10/18 05:01:56;;;;;;;50.20;20.50;;;;;;;1.14;98.08;100288.56;4215280;28;21882;-75
2023/10/18 05:04:29;;;;;;;53.47;21.60;;;;;;;1.20;98.27;100290.88;4223504;28;21655;-74
2023/10/18 05:06:59;;;;;;;50.27;21.23;;;;;;;1.21;98.46;100288.13;4228113;28;20306;-74
2023/10/18 05:09:43;;;;;;;54.20;21.80;;;;;;;1.21;98.47;100296.13;4213609;28;21142;-74
2023/10/18 05:15:06;;;;;;;46.97;21.27;;;;;;;1.32;98.13;100300.81;4227723;28;20232;-74
2023/10/18 05:17:35;;;;;;;48.57;22.90;;;;;;;1.36;98.06;100297.00;4227525;28;23242;-74
2023/10/18 05:22:41;;;;;;;50.67;22.00;;;;;;;1.33;98.20;100297.19;4235612;28;21499;-72
2023/10/18 05:25:21;;;;;;;54.13;22.07;;;;;;;1.29;98.35;100294.78;4256990;28;20280;-71
2023/10/18 05:28:15;;;;;;;48.13;21.77;;;;;;;1.36;98.56;100296.16;4269333;28;20990;-75
2023/10/18 05:41:35;;;;;;;61.03;25.40;;;;;;;1.48;98.22;100302.56;4221064;28;20250;-73
2023/10/18 05:44:01;;;;;;;66.47;27.13;;;;;;;1.68;97.65;100310.19;4232786;28;20239;-72
2023/10/18 05:46:33;;;;;;;69.90;28.13;;;;;;;1.55;97.37;100306.56;4220013;28;20485;-68
2023/10/18 05:49:01;;;;;;;66.50;27.37;;;;;;;1.52;97.93;100304.06;4207314;28;20313;-72
2023/10/18 05:51:38;;;;;;;77.90;27.83;;;;;;;1.46;98.13;100307.13;4226301;28;20232;-67
2023/10/18 05:54:05;;;;;;;73.47;28.73;;;;;;;1.58;98.40;100319.75;4265957;28;20258;-70
2023/10/18 05:56:32;;;;;;;84.57;31.77;;;;;;;1.67;97.88;100311.16;4231618;28;21464;-70
2023/10/18 06:01:48;;;;;;;61.97;25.73;;;;;;;2.06;96.36;100306.97;4220297;28;20232;-71
2023/10/18 06:04:24;;;;;;;48.50;21.37;;;;;;;2.15;95.45;100302.88;4236295;28;20269;-73
2023/10/18 06:06:55;;;;;;;47.10;20.90;;;;;;;2.26;95.37;100309.34;4230485;28;20235;-68
2023/10/18 06:09:27;;;;;;;46.83;20.53;;;;;;;2.24;95.34;100301.44;4237558;28;21760;-71
2023/10/18 06:11:56;;;;;;;47.67;20.37;;;;;;;2.36;95.03;100295.31;4228395;28;20245;-72
2023/10/18 06:14:26;;;;;;;49.57;20.33;;;;;;;2.29;95.50;100295.81;4203380;28;20606;-71
2023/10/18 06:17:06;;;;;;;49.67;20.60;;;;;;;2.40;95.64;100297.78;4241530;28;20244;-74
2023/10/18 06:19:36;;;;;;;54.57;21.80;;;;;;;2.44;95.31;100293.97;4223185;28;20234;-74
2023/10/18 06:22:15;;;;;;;46.33;19.50;;;;;;;2.54;94.90;100282.56;4240147;28;20288;-72
2023/10/18 06:24:48;;;;;;;43.33;19.03;;;;;;;2.64;94.92;100295.34;4238617;28;20239;-73
2023/10/18 06:27:16;;;;;;;42.60;20.33;;;;;;;2.74;94.02;100290.25;4247466;28;20230;-71
2023/10/18 06:29:45;;;;;;;47.60;20.87;;;;;;;2.76;94.39;100285.66;4289690;28;20616;-72
2023/10/18 06:32:15;;;;;;;48.57;20.73;;;;;;;2.88;93.66;100284.84;4235723;28;20245;-75
2023/10/18 06:34:45;;;;;;;44.10;20.13;;;;;;;2.69;94.00;100278.06;4336136;28;23723;-72
2023/10/18 06:37:24;;;;;;;46.93;20.50;;;;;;;2.75;94.44;100279.47;4257483;28;20303;-71
2023/10/18 06:39:58;;;;;;;42.63;19.73;;;;;;;2.83;94.68;100274.44;4251586;28;20231;-73
2023/10/18 06:42:27;;;;;;;49.40;20.17;;;;;;;2.73;95.36;100284.06;4252266;28;20251;-71
2023/10/18 06:44:56;;;;;;;55.37;22.27;;;;;;;2.94;94.57;100275.56;4221721;28;20536;-73
2023/10/18 06:47:43;;;;;;;45.33;19.27;;;;;;;3.08;94.12;100272.81;4237971;28;20234;-72
2023/10/18 06:50:26;;;;;;;43.00;19.10;;;;;;;3.01;94.88;100280.41;4234659;28;20255;-74
2023/10/18 06:52:54;;;;;;;52.53;19.57;;;;;;;2.98;95.54;100277.09;4232266;28;20382;-72
2023/10/18 07:00:46;;;;;;;40.03;18.70;;;;;;;3.21;95.08;100282.72;4228929;28;20235;-71
2023/10/18 07:03:24;;;;;;;44.30;19.43;;;;;;;3.26;94.68;100281.41;4237081;28;20241;-71
2023/10/18 07:05:57;;;;;;;43.40;17.33;;;;;;;3.37;93.69;100278.00;4213790;28;20238;-72
2023/10/18 07:08:32;;;;;;;38.00;18.70;;;;;;;3.41;94.06;100282.19;4227035;28;20282;-72
2023/10/18 07:11:01;;;;;;;43.83;18.83;;;;;;;3.57;93.20;100278.47;4215415;28;20233;-74
2023/10/18 07:13:47;;;;;;;42.30;17.67;;;;;;;3.60;93.33;100280.91;4232949;28;21042;-72
2023/10/18 07:16:25;;;;;;;41.17;17.07;;;;;;;3.75;92.95;100274.50;4305817;28;20615;-73
2023/10/18 07:19:21;;;;;;;37.13;16.67;;;;;;;3.90;92.44;100277.94;4358229;28;20235;-74
2023/10/18 07:21:48;;;;;;;35.07;16.57;;;;;;;4.07;91.65;100276.72;4253351;28;20242;-73
2023/10/18 07:24:17;;;;;;;35.80;15.27;;;;;;;4.13;90.96;100267.41;4290209;28;20371;-75
2023/10/18 07:26:48;;;;;;;34.77;15.77;;;;;;;4.17;90.72;100262.69;4354695;28;20240;-73
2023/10/18 07:29:15;;;;;;;36.27;15.30;;;;;;;4.32;89.87;100255.34;4446080;28;21753;-76
2023/10/18 07:31:46;;;;;;;32.87;14.10;;;;;;;4.42;89.61;100253.72;4384928;28;25687;-75
2023/10/18 07:34:31;;;;;;;28.93;13.93;;;;;;;4.74;88.23;100256.69;4382268;28;20236;-73
2023/10/18 07:37:18;;;;;;;30.40;13.87;;;;;;;5.29;85.73;100258.00;4434643;28;20235;-70
2023/10/18 07:39:56;;;;;;;30.90;12.57;;;;;;;7.44;76.84;100259.50;4513002;28;20236;-74
2023/10/18 07:42:26;;;;;;;32.10;10.67;;;;;;;9.79;66.28;100251.88;4375377;28;20450;-71
2023/10/18 07:45:02;;;;;;;22.67;9.30;;;;;;;12.08;58.56;100241.78;4491607;28;20284;-74
2023/10/18 07:47:37;;;;;;;26.27;9.87;;;;;;;11.76;57.14;100250.53;4483463;28;20294;-74
2023/10/18 07:50:34;;;;;;;17.97;8.47;;;;;;;13.17;52.55;100250.06;4451192;28;21166;-72
2023/10/18 07:52:54;;;;;;;22.53;9.33;;;;;;;14.69;49.38;100238.50;4280110;28;20228;-73
2023/10/18 07:55:22;;;;;;;17.37;8.67;;;;;;;15.59;44.52;100245.13;4386492;28;21159;-73
2023/10/18 07:57:49;;;;;;;16.60;8.80;;;;;;;13.95;48.91;100245.91;4347458;28;20686;-75
2023/10/18 08:00:22;;;;;;;17.63;8.27;;;;;;;14.27;47.90;100238.66;4344894;28;20560;-70
2023/10/18 08:02:50;;;;;;;14.30;8.20;;;;;;;12.93;51.45;100237.28;4245865;28;20983;-68
2023/10/18 08:05:23;;;;;;;13.60;7.60;;;;;;;13.38;49.78;100237.81;4285097;28;20443;-72
2023/10/18 08:07:51;;;;;;;15.73;7.30;;;;;;;12.08;52.42;100233.66;4288493;28;20231;-69
2023/10/18 08:10:22;;;;;;;16.30;7.00;;;;;;;10.95;55.65;100250.59;4317570;28;21614;-73
2023/10/18 08:13:09;;;;;;;15.67;6.60;;;;;;;12.25;52.52;100236.41;4357284;28;20228;-68
2023/10/18 08:15:37;;;;;;;13.73;6.60;;;;;;;14.10;47.69;100243.31;4331052;28;20237;-69
2023/10/18 08:26:03;;;;;;;15.77;6.27;;;;;;;13.87;47.37;100232.31;4273169;28;20281;-69
2023/10/18 08:28:40;;;;;;;15.47;6.33;;;;;;;12.68;49.95;100232.66;4284975;28;22542;-69
2023/10/18 08:31:35;;;;;;;12.93;6.27;;;;;;;13.86;47.25;100232.50;4233784;28;20236;-72
2023/10/18 08:34:06;;;;;;;13.70;7.00;;;;;;;15.58;43.83;100228.94;4266759;28;21180;-72
2023/10/18 08:36:33;;;;;;;19.43;6.17;;;;;;;15.73;43.46;100224.34;4232453;28;20374;-69
2023/10/18 08:39:03;;;;;;;13.40;6.43;;;;;;;16.19;42.97;100230.69;4210199;28;20308;-70
2023/10/18 08:41:36;;;;;;;14.20;6.10;;;;;;;16.27;41.74;100222.41;4217644;28;20246;-73
2023/10/18 08:44:16;;;;;;;13.23;5.33;;;;;;;18.69;38.27;100223.31;4246119;28;20693;-70
2023/10/18 08:46:52;;;;;;;11.23;6.17;;;;;;;16.71;40.10;100217.88;4219669;28;20409;-72
2023/10/18 08:49:23;;;;;;;12.53;6.37;;;;;;;13.61;47.70;100225.25;4234131;28;20265;-72
2023/10/18 08:52:06;;;;;;;19.10;6.40;;;;;;;11.69;52.96;100229.50;4257170;28;22783;-69
2023/10/18 08:54:34;;;;;;;14.67;6.40;;;;;;;11.15;54.45;100229.63;4245855;28;22275;-71
2023/10/18 08:57:07;;;;;;;14.50;5.93;;;;;;;10.97;55.68;100215.22;4214006;28;20309;-71
2023/10/18 08:59:42;;;;;;;12.20;5.50;;;;;;;11.02;56.05;100221.88;4237297;28;25437;-72
2023/10/18 09:02:17;;;;;;;13.93;5.77;;;;;;;10.51;57.13;100218.00;4216690;28;20252;-70
2023/10/18 09:04:52;;;;;;;12.30;5.37;;;;;;;10.41;56.87;100218.06;4234245;28;20246;-69
2023/10/18 09:07:22;;;;;;;12.50;5.23;;;;;;;10.60;57.04;100222.50;4218181;28;20289;-70
2023/10/18 09:09:55;;;;;;;11.87;4.83;;;;;;;10.43;57.27;100225.03;4192769;28;20439;-73
2023/10/18 09:13:08;;;;;;;20.57;6.07;;;;;;;10.11;58.16;100218.19;4220036;28;20232;-70
2023/10/18 09:15:28;;;;;;;7.70;4.40;;;;;;;9.94;59.03;100214.41;4216034;28;20231;-70
2023/10/18 09:18:05;;;;;;;13.93;4.40;;;;;;;10.26;58.04;100202.31;4243799;28;20834;-70
2023/10/18 09:20:37;;;;;;;9.63;4.80;;;;;;;9.78;59.06;100211.50;4226396;28;22105;-71
2023/10/18 09:23:04;;;;;;;12.17;4.80;;;;;;;10.18;58.26;100209.47;4224363;28;20236;-72
2023/10/18 09:25:48;;;;;;;7.80;4.30;;;;;;;10.23;58.41;100207.16;4226997;28;20243;-74
2023/10/18 09:28:37;;;;;;;7.53;3.93;;;;;;;10.09;58.44;100213.94;4217141;28;20244;-72
2023/10/18 09:31:10;;;;;;;9.33;3.97;;;;;;;10.30;57.49;100211.81;4223680;28;20306;-73
2023/10/18 09:33:40;;;;;;;9.17;3.70;;;;;;;9.87;58.23;100218.72;4218048;28;21329;-71
2023/10/18 09:36:19;;;;;;;9.77;3.53;;;;;;;10.39;57.07;100214.66;4223084;28;20690;-71
2023/10/18 09:38:48;;;;;;;10.47;3.40;;;;;;;10.13;57.71;100213.47;4233614;28;20243;-72
2023/10/18 09:41:16;;;;;;;11.33;4.07;;;;;;;10.36;58.07;100221.19;4228914;28;20236;-73
2023/10/18 09:43:44;;;;;;;10.00;4.03;;;;;;;10.25;58.08;100215.97;4224471;28;25848;-73
2023/10/18 09:46:13;;;;;;;7.77;3.80;;;;;;;10.30;58.37;100211.81;4238319;28;21660;-71
2023/10/18 09:48:45;;;;;;;7.93;4.07;;;;;;;10.27;58.65;100209.41;4236492;28;20244;-73
2023/10/18 09:51:20;;;;;;;9.67;3.93;;;;;;;10.19;58.54;100203.91;4199534;28;20232;-71
2023/10/18 09:53:49;;;;;;;7.60;4.07;;;;;;;10.19;58.88;100222.84;4232599;28;23061;-72
2023/10/18 09:56:33;;;;;;;10.30;3.90;;;;;;;10.05;58.78;100209.78;4224048;28;22843;-71
2023/10/18 09:59:05;;;;;;;11.17;4.23;;;;;;;9.73;59.80;100217.34;4209975;28;23083;-73
2023/10/18 10:04:12;;;;;;;10.23;4.23;;;;;;;10.24;59.08;100203.44;4233300;28;20573;-72
2023/10/18 10:06:45;;;;;;;9.20;4.33;;;;;;;10.11;58.89;100214.63;4227776;28;20368;-71
2023/10/18 10:09:14;;;;;;;11.87;4.33;;;;;;;10.26;58.84;100193.31;4225539;28;20240;-74
2023/10/18 10:11:45;;;;;;;8.73;4.27;;;;;;;10.21;59.69;100196.47;4227367;28;20243;-71
2023/10/18 10:14:17;;;;;;;12.33;4.27;;;;;;;10.17;58.90;100189.69;4215936;28;21816;-71
2023/10/18 10:16:52;;;;;;;14.00;4.47;;;;;;;10.13;58.86;100188.25;4221453;28;20586;-70
2023/10/18 10:19:53;;;;;;;9.60;4.20;;;;;;;10.09;58.92;100186.88;4233514;28;20235;-71
2023/10/18 10:22:24;;;;;;;13.47;3.63;;;;;;;10.17;58.19;100181.56;4228475;28;20417;-69
2023/10/18 10:25:05;;;;;;;10.80;4.20;;;;;;;10.10;58.62;100185.88;4226351;28;20349;-72
2023/10/18 10:27:59;;;;;;;13.33;3.87;;;;;;;10.11;58.77;100177.59;4222193;28;20237;-69
2023/10/18 10:30:35;;;;;;;7.57;3.73;;;;;;;10.30;58.43;100182.06;4242868;28;20667;-69
2023/10/18 10:33:12;;;;;;;9.47;3.50;;;;;;;10.49;57.26;100177.56;4242266;28;20277;-71
2023/10/18 10:35:47;;;;;;;8.03;3.50;;;;;;;10.47;57.56;100168.72;4210247;28;20234;-69
2023/10/18 10:38:18;;;;;;;7.73;2.60;;;;;;;10.53;57.33;100175.41;4226013;28;20502;-70
2023/10/18 10:40:48;;;;;;;11.00;3.40;;;;;;;10.65;56.60;100178.72;4256374;28;20351;-70
2023/10/18 10:43:19;;;;;;;9.33;2.90;;;;;;;10.50;56.83;100175.69;4242964;28;20320;-70
2023/10/18 10:51:06;;;;;;;6.80;2.30;;;;;;;10.63;55.53;100162.63;4222868;28;21267;-70
2023/10/18 10:53:50;;;;;;;6.13;2.90;;;;;;;10.77;55.70;100153.94;4205826;28;20765;-70
2023/10/18 10:56:17;;;;;;;6.93;2.80;;;;;;;10.83;55.77;100165.19;4220702;28;20676;-70
2023/10/18 10:58:55;;;;;;;6.47;2.40;;;;;;;10.89;55.06;100157.28;4232415;28;20232;-70
2023/10/18 11:04:25;;;;;;;7.47;2.43;;;;;;;11.01;54.97;100157.03;4211373;28;23914;-71
2023/10/18 11:06:56;;;;;;;9.27;2.43;;;;;;;11.20;54.50;100153.28;4245292;28;20300;-69
2023/10/18 11:09:32;;;;;;;7.73;2.20;;;;;;;11.14;53.55;100151.22;4219148;28;20273;-70
2023/10/18 11:12:03;;;;;;;7.83;2.40;;;;;;;11.14;54.19;100137.66;4230718;28;20314;-73
2023/10/18 11:14:31;;;;;;;6.20;2.43;;;;;;;11.10;54.06;100137.97;4237539;28;20232;-74
2023/10/18 11:17:03;;;;;;;7.23;2.37;;;;;;;11.19;54.33;100138.03;4276102;28;21735;-72
2023/10/18 11:19:30;;;;;;;7.80;2.80;;;;;;;11.19;53.83;100140.75;4228486;28;20234;-72
2023/10/18 11:21:58;;;;;;;5.77;2.20;;;;;;;11.42;53.35;100124.78;4240853;28;21746;-70
2023/10/18 11:24:27;;;;;;;6.23;2.43;;;;;;;11.58;52.98;100134.88;4202789;28;20247;-70
2023/10/18 11:26:57;;;;;;;9.27;2.70;;;;;;;11.57;52.96;100125.06;4226931;28;20235;-68
2023/10/18 11:29:24;;;;;;;7.77;2.77;;;;;;;11.33;52.92;100118.47;4246729;28;25599;-69
2023/10/18 11:31:58;;;;;;;6.20;2.40;;;;;;;11.01;53.47;100119.13;4263580;28;21129;-71
2023/10/18 11:34:26;;;;;;;7.67;2.67;;;;;;;11.19;53.77;100116.38;4199965;28;20289;-68
2023/10/18 11:37:01;;;;;;;4.17;2.20;;;;;;;11.16;53.35;100133.78;4213792;28;21382;-68
2023/10/18 11:39:32;;;;;;;8.10;2.70;;;;;;;11.39;53.21;100122.41;4222214;28;20234;-71
2023/10/18 11:42:00;;;;;;;6.63;2.63;;;;;;;11.33;53.28;100129.31;4220481;28;21505;-71
2023/10/18 11:44:33;;;;;;;13.70;5.43;;;;;;;11.55;52.56;100129.78;4222386;28;20290;-70
2023/10/18 11:47:20;;;;;;;7.17;2.47;;;;;;;11.51;52.74;100128.41;4225008;28;20745;-72
2023/10/18 11:49:52;;;;;;;5.67;2.50;;;;;;;11.45;52.96;100121.78;4237439;28;20517;-69
2023/10/18 11:52:25;;;;;;;8.67;3.50;;;;;;;11.34;53.15;100119.31;4212504;28;20337;-73
2023/10/18 11:55:08;;;;;;;40.73;22.33;;;;;;;11.03;53.82;100109.81;4245356;28;22856;-74
2023/10/18 11:57:39;;;;;;;34.63;16.83;;;;;;;11.22;53.95;100116.88;4226823;28;20501;-72
2023/10/18 12:02:49;;;;;;;14.77;5.63;;;;;;;11.27;53.15;100116.41;4228665;28;20969;-68
2023/10/18 12:05:23;;;;;;;9.17;3.07;;;;;;;11.15;53.11;100105.00;4227080;28;20291;-69
2023/10/18 12:07:50;;;;;;;5.43;2.55;;;;;;;11.23;53.10;100094.22;4235389;28;20439;-69
2023/10/18 12:10:17;;;;;;;6.27;2.67;;;;;;;11.15;54.52;100104.13;4222178;28;20644;-71
2023/10/18 12:12:49;;;;;;;4.95;2.38;;;;;;;10.73;54.98;100098.44;4226136;28;21379;-70
2023/10/18 12:15:16;;;;;;;9.37;2.50;;;;;;;10.70;55.06;100104.13;4210522;28;20240;-71
2023/10/18 12:17:45;;;;;;;6.87;2.53;;;;;;;10.77;54.30;100093.53;4229982;28;20385;-70
2023/10/18 12:20:12;;;;;;;4.07;2.50;;;;;;;10.89;54.25;100086.03;4240956;28;20322;-68
2023/10/18 12:22:42;;;;;;;10.10;2.50;;;;;;;11.04;54.03;100097.97;4213558;28;20240;-65
2023/10/18 12:25:09;;;;;;;9.83;3.00;;;;;;;11.07;53.84;100085.97;4226274;28;20236;-71
2023/10/18 12:27:36;;;;;;;6.30;2.67;;;;;;;11.00;54.29;100083.03;4269828;28;20358;-72
2023/10/18 12:30:51;;;;;;;15.43;5.97;;;;;;;11.17;53.44;100092.16;4216582;28;20737;-69
2023/10/18 12:32:57;;;;;;;12.07;3.00;;;;;;;11.32;53.75;100086.97;4222315;28;25614;-73
2023/10/18 12:35:28;;;;;;;8.07;2.80;;;;;;;11.36;54.30;100073.94;4241415;28;20305;-71
2023/10/18 12:37:56;;;;;;;8.47;3.23;;;;;;;11.17;53.85;100067.75;4211523;28;23032;-72
2023/10/18 12:40:40;;;;;;;10.13;3.53;;;;;;;10.96;54.61;100065.41;4220486;28;21340;-71